createdAt,value
2018-09-18T00:00:04.541Z,18.25
2018-09-18T00:01:07.338Z,17.50
2018-09-18T00:02:10.328Z,19.00
2018-09-18T00:03:13.577Z,21.00
2018-09-18T00:04:16.975Z,18.50
2018-09-18T00:05:20.008Z,18.00
2018-09-18T00:06:22.779Z,18.00
2018-09-18T00:07:25.532Z,22.00
2018-09-18T00:08:28.280Z,19.25
2018-09-18T00:09:31.810Z,23.50
2018-09-18T00:10:36.664Z,21.50
2018-09-18T00:11:39.424Z,20.50
2018-09-18T00:12:42.176Z,21.00
2018-09-18T00:13:45.452Z,23.00
2018-09-18T00:14:48.305Z,22.50
2018-09-18T00:15:51.397Z,21.25
2018-09-18T00:16:54.960Z,23.75
2018-09-18T00:17:58.878Z,21.75
2018-09-18T00:19:03.266Z,21.50
2018-09-18T00:20:06.162Z,20.25
2018-09-18T00:21:08.899Z,19.50
2018-09-18T00:22:11.678Z,19.25
2018-09-18T00:23:15.100Z,20.25
2018-09-18T00:24:17.958Z,22.75
2018-09-18T00:25:20.808Z,22.00
2018-09-18T00:26:23.689Z,20.25
2018-09-18T00:27:26.811Z,20.50
2018-09-18T00:28:30.011Z,20.00
2018-09-18T00:29:33.212Z,18.25
2018-09-18T00:30:36.165Z,19.00
2018-09-18T00:31:39.155Z,21.50
2018-09-18T00:32:42.244Z,20.50
2018-09-18T00:33:45.581Z,21.00
2018-09-18T00:34:49.611Z,21.50
2018-09-18T00:35:53.205Z,19.75
2018-09-18T00:36:56.347Z,21.00
2018-09-18T00:37:59.363Z,19.00
2018-09-18T00:39:02.163Z,18.25
2018-09-18T00:40:04.889Z,19.00
2018-09-18T00:41:07.708Z,20.00
2018-09-18T00:42:10.774Z,19.00
2018-09-18T00:43:13.530Z,22.00
2018-09-18T00:44:16.385Z,18.75
2018-09-18T00:45:19.309Z,21.25
2018-09-18T00:46:22.216Z,23.25
2018-09-18T00:47:25.056Z,21.25
2018-09-18T00:48:28.195Z,18.00
2018-09-18T00:49:30.958Z,18.00
2018-09-18T00:50:33.725Z,20.75
2018-09-18T00:51:36.560Z,18.25
2018-09-18T00:52:39.360Z,16.00
2018-09-18T00:53:42.179Z,21.00
2018-09-18T00:54:45.260Z,17.50
2018-09-18T00:55:48.508Z,19.25
2018-09-18T00:56:52.485Z,18.50
2018-09-18T00:57:55.452Z,18.50
2018-09-18T00:58:58.325Z,16.75
2018-09-18T01:00:01.069Z,18.75
2018-09-18T01:01:04.171Z,17.25
2018-09-18T01:02:07.021Z,18.00
2018-09-18T01:03:09.889Z,16.75
2018-09-18T01:04:12.809Z,17.75
2018-09-18T01:05:15.605Z,18.00
2018-09-18T01:06:19.126Z,20.00
2018-09-18T01:07:22.574Z,17.75
2018-09-18T01:08:25.366Z,18.50
2018-09-18T01:09:28.142Z,18.00
2018-09-18T01:10:31.088Z,18.25
2018-09-18T01:11:33.897Z,18.00
2018-09-18T01:12:36.694Z,17.25
2018-09-18T01:13:39.837Z,19.50
2018-09-18T01:14:42.704Z,19.75
2018-09-18T01:15:45.714Z,17.25
2018-09-18T01:16:48.524Z,21.00
2018-09-18T01:17:52.667Z,21.00
2018-09-18T01:18:55.477Z,16.75
2018-09-18T01:19:59.703Z,19.00
2018-09-18T01:21:02.568Z,17.50
2018-09-18T01:22:05.307Z,17.00
2018-09-18T01:23:08.143Z,17.75
2018-09-18T01:24:10.967Z,17.75
2018-09-18T01:25:14.198Z,18.00
2018-09-18T01:26:17.749Z,18.25
2018-09-18T01:27:20.570Z,19.00
2018-09-18T01:28:23.362Z,18.00
2018-09-18T01:29:26.220Z,18.00
2018-09-18T01:30:29.039Z,18.00
2018-09-18T01:31:32.761Z,17.50
2018-09-18T01:32:36.856Z,18.75
2018-09-18T01:33:39.635Z,18.00
2018-09-18T01:34:42.401Z,20.50
2018-09-18T01:35:45.198Z,18.75
2018-09-18T01:36:48.538Z,18.75
2018-09-18T01:37:51.296Z,21.00
2018-09-18T01:38:54.429Z,17.75
2018-09-18T01:39:57.285Z,21.25
2018-09-18T01:41:00.130Z,18.75
2018-09-18T01:42:03.342Z,23.25
2018-09-18T01:43:07.541Z,23.00
2018-09-18T01:44:10.618Z,22.50
2018-09-18T01:45:13.700Z,19.75
2018-09-18T01:46:16.515Z,21.25
2018-09-18T01:47:19.379Z,20.25
2018-09-18T01:48:22.215Z,23.75
2018-09-18T01:49:25.220Z,22.25
2018-09-18T01:50:27.998Z,19.50
2018-09-18T01:51:31.149Z,21.75
2018-09-18T01:52:33.999Z,19.75
2018-09-18T01:53:36.874Z,23.25
2018-09-18T01:54:39.709Z,20.75
2018-09-18T01:55:42.889Z,24.50
2018-09-18T01:56:45.814Z,17.50
2018-09-18T01:57:48.969Z,21.75
2018-09-18T01:58:51.847Z,20.50
2018-09-18T01:59:54.683Z,20.50
2018-09-18T02:00:58.560Z,22.00
2018-09-18T02:02:01.337Z,18.50
2018-09-18T02:03:04.117Z,18.00
2018-09-18T02:04:07.381Z,19.25
2018-09-18T02:05:10.155Z,21.00
2018-09-18T02:06:12.926Z,19.25
2018-09-18T02:07:15.815Z,20.50
2018-09-18T02:08:18.862Z,16.75
2018-09-18T02:09:22.258Z,22.00
2018-09-18T02:10:25.333Z,18.75
2018-09-18T02:11:28.127Z,19.75
2018-09-18T02:12:30.925Z,20.00
2018-09-18T02:13:33.809Z,19.75
2018-09-18T02:14:36.596Z,21.00
2018-09-18T02:15:39.352Z,22.00
2018-09-18T02:16:42.394Z,19.50
2018-09-18T02:17:45.178Z,21.50
2018-09-18T02:18:47.952Z,20.75
2018-09-18T02:19:50.740Z,23.75
2018-09-18T02:20:53.531Z,20.75
2018-09-18T02:21:56.318Z,20.00
2018-09-18T02:22:59.417Z,24.25
2018-09-18T02:24:02.504Z,20.00
2018-09-18T02:25:05.494Z,22.50
2018-09-18T02:26:08.451Z,20.00
2018-09-18T02:27:11.250Z,20.00
2018-09-18T02:28:14.021Z,19.00
2018-09-18T02:29:17.985Z,22.25
2018-09-18T02:30:20.788Z,20.25
2018-09-18T02:31:23.595Z,18.75
2018-09-18T02:32:26.429Z,19.00
2018-09-18T02:33:29.231Z,18.25
2018-09-18T02:34:32.022Z,20.00
2018-09-18T02:35:35.116Z,17.00
2018-09-18T02:36:37.924Z,20.25
2018-09-18T02:37:41.007Z,17.00
2018-09-18T02:38:43.945Z,19.75
2018-09-18T02:39:46.748Z,20.25
2018-09-18T02:40:49.550Z,20.00
2018-09-18T02:41:54.276Z,19.75
2018-09-18T02:42:57.187Z,19.00
2018-09-18T02:44:00.051Z,23.00
2018-09-18T02:45:02.831Z,22.75
2018-09-18T02:46:05.787Z,22.00
2018-09-18T02:47:08.607Z,22.50
2018-09-18T02:48:11.670Z,22.25
2018-09-18T02:49:14.450Z,22.50
2018-09-18T02:50:17.214Z,21.25
2018-09-18T02:51:20.019Z,22.25
2018-09-18T02:52:22.799Z,22.75
2018-09-18T02:53:25.554Z,22.75
2018-09-18T02:54:28.639Z,22.75
2018-09-18T02:55:31.430Z,21.75
2018-09-18T02:56:34.209Z,19.75
2018-09-18T02:57:37.022Z,19.75
2018-09-18T02:58:39.887Z,18.50
2018-09-18T02:59:42.700Z,19.50
2018-09-18T03:00:45.762Z,22.00
2018-09-18T03:01:48.505Z,20.75
2018-09-18T03:02:51.288Z,19.25
2018-09-18T03:03:54.093Z,22.00
2018-09-18T03:04:56.862Z,19.00
2018-09-18T03:05:59.650Z,18.50
2018-09-18T03:07:02.767Z,18.75
2018-09-18T03:08:05.550Z,16.50
2018-09-18T03:09:08.323Z,19.75
2018-09-18T03:10:11.093Z,19.75
2018-09-18T03:11:13.995Z,16.50
2018-09-18T03:12:16.787Z,19.00
2018-09-18T03:13:19.880Z,19.25
2018-09-18T03:14:22.682Z,18.25
2018-09-18T03:15:25.428Z,18.00
2018-09-18T03:16:28.315Z,22.00
2018-09-18T03:17:31.098Z,20.00
2018-09-18T03:18:34.489Z,20.00
2018-09-18T03:19:37.633Z,23.00
2018-09-18T03:20:40.436Z,18.00
2018-09-18T03:21:43.833Z,18.50
2018-09-18T03:22:47.130Z,25.25
2018-09-18T03:23:49.941Z,22.25
2018-09-18T03:24:52.732Z,19.25
2018-09-18T03:25:55.926Z,17.25
2018-09-18T03:26:58.688Z,22.25
2018-09-18T03:28:01.676Z,22.25
2018-09-18T03:29:04.537Z,22.25
2018-09-18T03:30:07.331Z,19.00
2018-09-18T03:31:10.107Z,20.00
2018-09-18T03:32:13.595Z,20.25
2018-09-18T03:33:17.350Z,19.25
2018-09-18T03:34:20.337Z,19.25
2018-09-18T03:35:23.129Z,22.25
2018-09-18T03:36:25.907Z,22.00
2018-09-18T03:37:28.658Z,20.50
2018-09-18T03:38:31.765Z,22.00
2018-09-18T03:39:34.528Z,21.25
2018-09-18T03:40:37.276Z,22.25
2018-09-18T03:41:40.069Z,19.00
2018-09-18T03:42:43.467Z,23.00
2018-09-18T03:43:46.225Z,19.00
2018-09-18T03:44:49.433Z,19.75
2018-09-18T03:45:52.210Z,22.25
2018-09-18T03:46:54.979Z,21.75
2018-09-18T03:47:57.786Z,20.50
2018-09-18T03:49:00.540Z,21.50
2018-09-18T03:50:03.334Z,18.75
2018-09-18T03:51:06.449Z,21.25
2018-09-18T03:52:09.283Z,22.00
2018-09-18T03:53:12.053Z,18.25
2018-09-18T03:54:15.019Z,23.75
2018-09-18T03:55:17.757Z,21.50
2018-09-18T03:56:20.529Z,20.25
2018-09-18T03:57:23.723Z,18.25
2018-09-18T03:58:26.548Z,20.75
2018-09-18T03:59:29.394Z,20.75
2018-09-18T04:00:32.186Z,22.00
2018-09-18T04:01:34.951Z,20.50
2018-09-18T04:02:37.737Z,20.00
2018-09-18T04:03:40.500Z,21.00
2018-09-18T04:04:43.289Z,21.75
2018-09-18T04:05:46.059Z,23.75
2018-09-18T04:06:48.819Z,20.00
2018-09-18T04:07:51.668Z,19.25
2018-09-18T04:08:54.720Z,22.75
2018-09-18T04:09:57.480Z,20.75
2018-09-18T04:11:00.376Z,22.50
2018-09-18T04:12:03.133Z,23.25
2018-09-18T04:13:05.883Z,24.00
2018-09-18T04:14:08.647Z,22.00
2018-09-18T04:15:11.740Z,18.75
2018-09-18T04:16:14.497Z,20.00
2018-09-18T04:17:17.295Z,19.25
2018-09-18T04:18:22.800Z,18.75
2018-09-18T04:19:25.599Z,23.25
2018-09-18T04:20:28.500Z,19.75
2018-09-18T04:21:37.855Z,21.50
2018-09-18T04:22:40.614Z,19.25
2018-09-18T04:23:43.443Z,15.75
2018-09-18T04:24:46.190Z,21.25
2018-09-18T04:25:49.222Z,21.25
2018-09-18T04:26:52.276Z,22.00
2018-09-18T04:27:55.088Z,20.75
2018-09-18T04:28:57.933Z,27.50
2018-09-18T04:30:00.700Z,21.50
2018-09-18T04:31:03.489Z,22.00
2018-09-18T04:32:06.277Z,22.00
2018-09-18T04:33:09.627Z,24.00
2018-09-18T04:34:12.398Z,21.00
2018-09-18T04:35:15.156Z,21.50
2018-09-18T04:36:17.935Z,23.75
2018-09-18T04:37:20.703Z,21.25
2018-09-18T04:38:23.456Z,20.50
2018-09-18T04:39:26.515Z,27.25
2018-09-18T04:40:29.290Z,24.50
2018-09-18T04:41:32.085Z,26.00
2018-09-18T04:42:34.967Z,30.00
2018-09-18T04:43:37.806Z,28.75
2018-09-18T04:44:40.582Z,25.00
2018-09-18T04:45:43.402Z,33.00
2018-09-18T04:46:46.213Z,34.25
2018-09-18T04:47:49.055Z,30.00
2018-09-18T04:48:51.846Z,30.00
2018-09-18T04:49:54.634Z,29.00
2018-09-18T04:50:57.818Z,29.75
2018-09-18T04:52:00.642Z,25.00
2018-09-18T04:53:03.433Z,29.00
2018-09-18T04:54:06.255Z,28.75
2018-09-18T04:55:09.062Z,29.50
2018-09-18T04:56:12.011Z,27.00
2018-09-18T04:57:15.457Z,23.50
2018-09-18T04:58:18.245Z,24.00
2018-09-18T04:59:21.118Z,25.00
2018-09-18T05:00:23.924Z,25.75
2018-09-18T05:01:26.730Z,26.75
2018-09-18T05:02:29.860Z,25.25
2018-09-18T05:03:33.097Z,21.00
2018-09-18T05:04:36.000Z,27.50
2018-09-18T05:05:38.799Z,27.75
2018-09-18T05:06:41.787Z,27.00
2018-09-18T05:07:44.650Z,24.00
2018-09-18T05:08:47.979Z,25.25
2018-09-18T05:09:50.984Z,21.25
2018-09-18T05:10:53.797Z,25.75
2018-09-18T05:11:56.574Z,21.25
2018-09-18T05:13:00.140Z,20.75
2018-09-18T05:14:03.009Z,23.50
2018-09-18T05:15:06.090Z,24.00
2018-09-18T05:16:08.863Z,25.00
2018-09-18T05:17:11.701Z,21.50
2018-09-18T05:18:14.491Z,21.75
2018-09-18T05:19:17.292Z,23.00
2018-09-18T05:20:20.397Z,23.00
2018-09-18T05:21:24.568Z,25.75
2018-09-18T05:22:27.397Z,23.50
2018-09-18T05:23:31.466Z,22.75
2018-09-18T05:24:34.278Z,23.50
2018-09-18T05:25:37.191Z,20.75
2018-09-18T05:26:39.995Z,21.50
2018-09-18T05:27:43.062Z,23.75
2018-09-18T05:28:45.973Z,26.75
2018-09-18T05:29:48.778Z,26.75
2018-09-18T05:44:22.862Z,30.25
2018-09-18T05:45:25.898Z,31.75
2018-09-18T05:46:28.687Z,34.25
2018-09-18T05:47:31.505Z,32.50
2018-09-18T05:48:34.895Z,31.50
2018-09-18T05:49:38.318Z,28.75
2018-09-18T05:50:41.258Z,35.00
2018-09-18T05:51:44.214Z,29.75
2018-09-18T05:52:47.010Z,31.75
2018-09-18T05:53:50.462Z,32.75
2018-09-18T05:54:53.232Z,36.00
2018-09-18T05:55:56.439Z,33.75
2018-09-18T05:56:59.258Z,34.25
2018-09-18T05:58:02.148Z,33.00
2018-09-18T05:59:05.927Z,31.25
2018-09-18T06:00:09.474Z,30.00
2018-09-18T06:01:13.256Z,28.50
2018-09-18T06:02:21.452Z,32.00
2018-09-18T06:03:25.405Z,29.25
2018-09-18T06:04:28.637Z,24.75
2018-09-18T06:05:31.475Z,26.75
2018-09-18T06:06:34.277Z,27.00
2018-09-18T06:07:38.028Z,25.50
2018-09-18T06:08:41.127Z,25.00
2018-09-18T06:09:43.920Z,28.75
2018-09-18T06:10:46.746Z,27.75
2018-09-18T06:11:50.232Z,25.75
2018-09-18T06:12:53.052Z,22.75
2018-09-18T06:13:55.857Z,27.50
2018-09-18T06:14:59.633Z,30.25
2018-09-18T06:16:02.449Z,25.25
2018-09-18T06:17:05.238Z,27.50
2018-09-18T06:18:08.277Z,29.25
2018-09-18T06:19:11.669Z,26.25
2018-09-18T06:20:22.422Z,25.25
2018-09-18T06:21:25.892Z,24.00
2018-09-18T06:22:28.980Z,23.75
2018-09-18T06:23:31.784Z,24.75
2018-09-18T06:24:34.620Z,25.75
2018-09-18T06:25:37.490Z,22.50
2018-09-18T06:26:41.219Z,23.00
2018-09-18T06:27:44.035Z,25.75
2018-09-18T06:28:46.916Z,28.75
2018-09-18T06:29:49.747Z,27.75
2018-09-18T06:30:53.965Z,24.75
2018-09-18T06:31:57.139Z,28.00
2018-09-18T06:32:59.970Z,26.00
2018-09-18T06:34:02.909Z,30.25
2018-09-18T06:35:05.891Z,25.25
2018-09-18T06:36:08.815Z,26.00
2018-09-18T06:37:12.367Z,23.75
2018-09-18T06:38:16.641Z,26.50
2018-09-18T06:39:24.627Z,34.75
2018-09-18T06:40:27.431Z,33.75
2018-09-18T06:41:30.211Z,29.50
2018-09-18T06:42:33.519Z,29.75
2018-09-18T06:43:37.514Z,34.50
2018-09-18T06:44:40.681Z,38.75
2018-09-18T06:45:44.358Z,31.25
2018-09-18T06:46:48.011Z,32.75
2018-09-18T06:47:52.680Z,32.50
2018-09-18T06:48:55.490Z,35.50
2018-09-18T06:49:58.306Z,35.75
2018-09-18T06:51:04.292Z,36.25
2018-09-18T06:52:08.746Z,38.00
2018-09-18T06:53:11.558Z,38.00
2018-09-18T06:54:14.335Z,37.50
2018-09-18T06:55:17.135Z,40.75
2018-09-18T06:56:19.931Z,36.75
2018-09-18T06:57:23.090Z,34.75
2018-09-18T06:58:25.864Z,33.75
2018-09-18T06:59:28.683Z,36.25
2018-09-18T07:00:31.514Z,32.75
2018-09-18T07:01:36.045Z,31.50
2018-09-18T07:02:38.906Z,33.75
2018-09-18T07:03:42.094Z,33.75
2018-09-18T07:04:44.925Z,31.75
2018-09-18T07:05:48.375Z,31.25
2018-09-18T07:06:52.830Z,35.00
2018-09-18T07:07:55.644Z,31.75
2018-09-18T07:08:58.423Z,29.00
2018-09-18T07:10:01.654Z,28.75
2018-09-18T07:11:04.469Z,30.25
2018-09-18T07:12:07.269Z,33.25
2018-09-18T07:13:10.058Z,32.50
2018-09-18T07:14:12.841Z,30.25
2018-09-18T07:15:15.658Z,31.25
2018-09-18T07:16:19.152Z,30.75
2018-09-18T07:17:21.935Z,32.75
2018-09-18T07:18:24.726Z,31.25
2018-09-18T07:19:27.628Z,31.50
2018-09-18T07:20:30.436Z,32.50
2018-09-18T07:21:33.398Z,30.75
2018-09-18T07:22:40.628Z,33.75
2018-09-18T07:23:43.537Z,34.75
2018-09-18T07:24:46.655Z,35.00
2018-09-18T07:25:49.554Z,35.25
2018-09-18T07:26:52.425Z,36.00
2018-09-18T07:27:55.232Z,37.00
2018-09-18T07:28:58.714Z,37.25
2018-09-18T07:30:04.338Z,34.75
2018-09-18T07:31:08.374Z,36.50
2018-09-18T07:32:11.252Z,35.00
2018-09-18T07:33:14.695Z,35.00
2018-09-18T07:34:17.473Z,36.00
2018-09-18T07:35:21.404Z,37.50
2018-09-18T07:36:26.945Z,35.25
2018-09-18T07:37:29.990Z,35.00
2018-09-18T07:38:32.893Z,34.00
2018-09-18T07:39:35.714Z,35.00
2018-09-18T07:40:38.528Z,34.75
2018-09-18T07:41:41.779Z,35.00
2018-09-18T07:42:45.552Z,33.75
2018-09-18T07:43:48.399Z,34.00
2018-09-18T07:44:53.606Z,34.25
2018-09-18T07:45:59.737Z,33.75
2018-09-18T07:47:03.498Z,35.25
2018-09-18T07:48:06.803Z,33.50
2018-09-18T07:49:09.738Z,33.50
2018-09-18T07:50:12.522Z,34.00
2018-09-18T07:51:15.299Z,33.75
2018-09-18T07:52:18.141Z,33.00
2018-09-18T07:53:21.609Z,33.00
2018-09-18T07:54:24.820Z,31.25
2018-09-18T07:55:28.011Z,32.75
2018-09-18T07:56:31.127Z,33.00
2018-09-18T07:57:33.958Z,33.00
2018-09-18T07:58:37.447Z,30.75
2018-09-18T07:59:40.236Z,30.75
2018-09-18T08:00:43.505Z,32.25
2018-09-18T08:01:46.390Z,33.00
2018-09-18T08:02:49.219Z,33.50
2018-09-18T08:03:52.071Z,30.00
2018-09-18T08:04:55.408Z,27.75
2018-09-18T08:05:59.390Z,30.00
2018-09-18T08:07:04.661Z,31.75
2018-09-18T08:08:07.771Z,31.50
2018-09-18T08:09:12.085Z,30.00
2018-09-18T08:10:14.987Z,27.25
2018-09-18T08:11:17.786Z,30.00
2018-09-18T08:12:20.587Z,31.00
2018-09-18T08:13:23.807Z,32.00
2018-09-18T08:14:27.960Z,32.00
2018-09-18T08:15:30.795Z,30.50
2018-09-18T08:16:34.018Z,30.25
2018-09-18T08:17:40.642Z,32.00
2018-09-18T08:18:43.482Z,33.50
2018-09-18T08:19:46.865Z,32.00
2018-09-18T08:20:49.924Z,34.00
2018-09-18T08:21:52.758Z,30.25
2018-09-18T08:22:55.566Z,30.00
2018-09-18T08:23:58.415Z,31.00
2018-09-18T08:25:01.494Z,33.00
2018-09-18T08:26:04.791Z,31.75
2018-09-18T08:27:07.596Z,30.00
2018-09-18T08:28:10.522Z,30.75
2018-09-18T08:29:15.535Z,31.00
2018-09-18T08:30:18.595Z,31.75
2018-09-18T08:31:22.250Z,30.00
2018-09-18T08:32:28.411Z,32.75
2018-09-18T08:33:31.257Z,33.25
2018-09-18T08:34:34.939Z,32.00
2018-09-18T08:35:37.759Z,31.25
2018-09-18T08:36:40.864Z,32.25
2018-09-18T08:37:43.760Z,32.25
2018-09-18T08:38:47.135Z,28.25
2018-09-18T08:39:51.625Z,25.25
2018-09-18T08:40:54.564Z,28.75
2018-09-18T08:41:59.079Z,25.75
2018-09-18T08:43:01.922Z,29.00
2018-09-18T08:44:07.412Z,30.75
2018-09-18T08:45:10.713Z,29.25
2018-09-18T08:46:14.040Z,29.75
2018-09-18T08:47:17.147Z,25.75
2018-09-18T08:48:19.978Z,26.25
2018-09-18T08:49:23.821Z,24.75
2018-09-18T08:50:26.799Z,23.00
2018-09-18T08:51:30.692Z,17.75
2018-09-18T08:52:33.539Z,19.00
2018-09-18T08:53:38.859Z,19.50
2018-09-18T08:54:42.538Z,18.50
2018-09-18T08:55:45.416Z,18.75
2018-09-18T08:56:49.096Z,18.00
2018-09-18T08:57:52.431Z,17.50
2018-09-18T08:58:58.828Z,16.75
2018-09-18T09:00:01.601Z,16.75
2018-09-18T09:01:05.234Z,15.75
2018-09-18T09:02:08.277Z,16.00
2018-09-18T09:03:11.168Z,18.00
2018-09-18T09:04:15.090Z,18.00
2018-09-18T09:05:26.486Z,20.00
2018-09-18T09:06:29.702Z,15.25
2018-09-18T09:07:33.259Z,14.75
2018-09-18T09:08:36.500Z,16.75
2018-09-18T09:09:39.698Z,17.50
2018-09-18T09:10:42.945Z,19.00
2018-09-18T09:11:47.611Z,14.00
2018-09-18T09:12:50.760Z,13.75
2018-09-18T09:13:54.661Z,16.50
2018-09-18T09:14:57.641Z,15.75
2018-09-18T09:16:01.316Z,13.25
2018-09-18T09:17:04.747Z,14.25
2018-09-18T09:18:09.188Z,13.75
2018-09-18T09:19:12.397Z,15.00
2018-09-18T09:20:15.308Z,14.75
2018-09-18T09:21:18.818Z,13.50
2018-09-18T09:22:21.708Z,15.00
2018-09-18T09:23:24.812Z,13.00
2018-09-18T09:24:29.608Z,13.25
2018-09-18T09:25:33.990Z,12.00
2018-09-18T09:26:37.892Z,14.75
2018-09-18T09:27:41.392Z,13.75
2018-09-18T09:28:44.599Z,12.50
2018-09-18T09:29:49.392Z,13.25
2018-09-18T09:30:52.154Z,12.75
2018-09-18T09:31:55.074Z,12.50
2018-09-18T09:32:57.905Z,12.75
2018-09-18T09:34:00.959Z,11.75
2018-09-18T09:35:04.348Z,12.75
2018-09-18T09:36:08.772Z,14.00
2018-09-18T09:37:11.692Z,11.50
2018-09-18T09:38:15.837Z,11.00
2018-09-18T09:39:18.654Z,13.50
2018-09-18T09:40:21.515Z,13.25
2018-09-18T09:41:25.469Z,13.25
2018-09-18T09:42:28.248Z,13.25
2018-09-18T09:43:31.777Z,11.25
2018-09-18T09:44:34.645Z,14.00
2018-09-18T09:45:37.685Z,11.25
2018-09-18T09:46:41.359Z,11.50
2018-09-18T09:47:44.233Z,13.00
2018-09-18T09:48:48.585Z,11.75
2018-09-18T09:49:51.705Z,11.75
2018-09-18T09:50:55.301Z,12.25
2018-09-18T09:51:58.640Z,12.00
2018-09-18T09:53:02.297Z,10.75
2018-09-18T09:54:05.210Z,12.75
2018-09-18T09:55:08.872Z,12.25
2018-09-18T09:56:12.816Z,11.75
2018-09-18T09:57:18.654Z,11.75
2018-09-18T09:58:22.921Z,11.25
2018-09-18T09:59:26.244Z,11.75
2018-09-18T10:00:34.141Z,12.00
2018-09-18T10:01:42.515Z,11.75
2018-09-18T10:02:47.748Z,11.75
2018-09-18T10:03:51.177Z,11.25
2018-09-18T10:04:54.443Z,12.00
2018-09-18T10:05:58.484Z,12.50
2018-09-18T10:07:03.564Z,11.00
2018-09-18T10:08:07.266Z,11.75
2018-09-18T10:09:11.459Z,11.00
2018-09-18T10:10:14.486Z,11.50
2018-09-18T10:11:17.742Z,12.00
2018-09-18T10:12:21.090Z,12.00
2018-09-18T10:13:24.053Z,10.75
2018-09-18T10:14:28.077Z,11.75
2018-09-18T10:15:31.366Z,10.75
2018-09-18T10:16:34.905Z,10.25
2018-09-18T10:17:38.120Z,10.75
2018-09-18T10:18:41.846Z,11.25
2018-09-18T10:19:45.290Z,10.25
2018-09-18T10:20:48.289Z,10.75
2018-09-18T10:21:51.245Z,12.00
2018-09-18T10:22:56.609Z,10.75
2018-09-18T10:24:00.081Z,10.50
2018-09-18T10:25:03.026Z,11.75
2018-09-18T10:26:06.080Z,12.00
2018-09-18T10:27:09.101Z,10.75
2018-09-18T10:28:11.955Z,10.75
2018-09-18T10:29:15.195Z,11.50
2018-09-18T10:30:18.211Z,10.00
2018-09-18T10:43:32.739Z,11.00
2018-09-18T10:44:36.590Z,10.75
2018-09-18T10:45:39.610Z,9.25
2018-09-18T10:46:42.345Z,10.00
2018-09-18T10:47:45.398Z,12.75
2018-09-18T10:48:53.060Z,10.50
2018-09-18T10:49:57.163Z,12.00
2018-09-18T10:51:00.104Z,13.00
2018-09-18T10:52:03.549Z,10.50
2018-09-18T10:53:06.341Z,12.50
2018-09-18T10:54:09.445Z,11.25
2018-09-18T10:55:12.223Z,12.25
2018-09-18T10:56:16.256Z,12.00
2018-09-18T10:57:20.257Z,12.00
2018-09-18T10:58:23.340Z,11.00
2018-09-18T10:59:26.292Z,10.75
2018-09-18T11:00:29.403Z,11.50
2018-09-18T11:01:32.171Z,11.75
2018-09-18T11:02:35.321Z,11.00
2018-09-18T11:03:39.393Z,10.00
2018-09-18T11:04:42.346Z,10.75
2018-09-18T11:05:45.266Z,10.50
2018-09-18T11:06:48.532Z,10.00
2018-09-18T11:07:51.333Z,12.00
2018-09-18T11:08:55.461Z,10.00
2018-09-18T11:09:58.386Z,12.00
2018-09-18T11:11:01.488Z,9.75
2018-09-18T11:12:04.670Z,12.00
2018-09-18T11:13:08.648Z,11.00
2018-09-18T11:14:12.985Z,12.00
2018-09-18T11:15:16.412Z,10.75
2018-09-18T11:16:19.834Z,12.00
2018-09-18T11:17:23.440Z,11.00
2018-09-18T11:18:26.443Z,10.25
2018-09-18T11:19:29.705Z,10.00
2018-09-18T11:20:32.599Z,10.75
2018-09-18T11:21:36.015Z,10.25
2018-09-18T11:22:38.842Z,9.50
2018-09-18T11:23:42.203Z,11.50
2018-09-18T11:24:45.124Z,10.00
2018-09-18T11:25:48.232Z,10.25
2018-09-18T11:26:51.979Z,10.25
2018-09-18T11:27:54.868Z,11.25
2018-09-18T11:28:58.147Z,12.75
2018-09-18T11:30:01.410Z,11.00
2018-09-18T11:31:04.511Z,11.50
2018-09-18T11:32:10.123Z,11.50
2018-09-18T11:33:13.777Z,10.50
2018-09-18T11:34:17.316Z,11.25
2018-09-18T11:35:24.433Z,10.25
2018-09-18T11:36:29.610Z,10.75
2018-09-18T11:37:32.551Z,11.00
2018-09-18T11:38:36.276Z,10.50
2018-09-18T11:39:39.290Z,11.00
2018-09-18T11:40:42.496Z,10.00
2018-09-18T11:41:45.397Z,11.75
2018-09-18T11:42:48.234Z,11.75
2018-09-18T11:43:51.245Z,12.75
2018-09-18T11:44:54.371Z,12.00
2018-09-18T11:45:57.493Z,12.50
2018-09-18T11:47:01.060Z,13.25
2018-09-18T11:48:04.006Z,12.75
2018-09-18T11:49:07.240Z,10.25
2018-09-18T11:50:10.462Z,13.25
2018-09-18T11:51:13.995Z,11.75
2018-09-18T11:52:17.362Z,12.00
2018-09-18T11:53:20.714Z,12.25
2018-09-18T11:54:24.653Z,13.25
2018-09-18T11:55:27.609Z,13.00
2018-09-18T11:56:30.612Z,12.50
2018-09-18T11:57:33.878Z,11.75
2018-09-18T11:58:36.712Z,13.00
2018-09-18T11:59:40.481Z,12.00
2018-09-18T12:00:43.270Z,14.00
2018-09-18T12:01:47.741Z,13.75
2018-09-18T12:02:51.548Z,13.00
2018-09-18T12:03:54.632Z,12.75
2018-09-18T12:04:58.395Z,14.00
2018-09-18T12:06:02.484Z,13.00
2018-09-18T12:07:05.347Z,12.00
2018-09-18T12:08:08.370Z,14.00
2018-09-18T12:09:12.108Z,12.00
2018-09-18T12:10:15.007Z,13.00
2018-09-18T12:11:17.822Z,14.00
2018-09-18T12:12:21.265Z,13.00
2018-09-18T12:13:24.197Z,12.75
2018-09-18T12:14:27.035Z,13.75
2018-09-18T12:15:30.436Z,13.75
2018-09-18T12:16:33.243Z,15.00
2018-09-18T12:17:36.052Z,12.25
2018-09-18T12:18:40.236Z,12.50
2018-09-18T12:19:43.062Z,13.00
2018-09-18T12:20:46.653Z,12.50
2018-09-18T12:21:49.958Z,14.00
2018-09-18T12:22:52.856Z,13.00
2018-09-18T12:23:55.668Z,13.00
2018-09-18T12:24:58.505Z,12.00
2018-09-18T12:26:01.358Z,12.00
2018-09-18T12:27:04.856Z,12.75
2018-09-18T12:28:08.410Z,11.75
2018-09-18T12:29:13.662Z,11.75
2018-09-18T12:30:16.482Z,13.25
2018-09-18T12:31:19.306Z,12.75
2018-09-18T12:32:22.096Z,11.00
2018-09-18T12:33:26.713Z,15.00
2018-09-18T12:34:29.778Z,13.50
2018-09-18T12:35:32.741Z,12.00
2018-09-18T12:36:36.453Z,12.50
2018-09-18T12:37:39.250Z,13.75
2018-09-18T12:38:43.673Z,12.75
2018-09-18T12:39:46.499Z,13.25
2018-09-18T12:40:50.388Z,11.00
2018-09-18T12:41:53.264Z,13.00
2018-09-18T12:42:56.992Z,11.00
2018-09-18T12:43:59.861Z,11.75
2018-09-18T12:45:02.666Z,14.75
2018-09-18T12:46:05.973Z,14.00
2018-09-18T12:47:10.757Z,12.75
2018-09-18T12:48:13.501Z,12.00
2018-09-18T12:49:17.467Z,12.00
2018-09-18T12:50:20.863Z,13.50
2018-09-18T12:51:23.884Z,12.00
2018-09-18T12:52:26.704Z,13.75
2018-09-18T12:53:33.194Z,12.00
2018-09-18T12:54:38.614Z,13.50
2018-09-18T12:55:42.653Z,12.00
2018-09-18T12:56:45.640Z,13.00
2018-09-18T12:57:48.518Z,11.75
2018-09-18T12:58:51.856Z,13.00
2018-09-18T12:59:55.707Z,12.75
2018-09-18T13:00:59.286Z,15.00
2018-09-18T13:02:02.068Z,16.00
2018-09-18T13:03:06.400Z,12.75
2018-09-18T13:04:09.193Z,13.00
2018-09-18T13:05:13.636Z,13.00
2018-09-18T13:06:16.660Z,12.50
2018-09-18T13:07:19.448Z,14.00
2018-09-18T13:08:22.246Z,12.50
2018-09-18T13:09:25.077Z,13.25
2018-09-18T13:10:27.927Z,16.00
2018-09-18T13:11:31.739Z,11.00
2018-09-18T13:12:34.657Z,11.50
2018-09-18T13:13:38.075Z,11.50
2018-09-18T13:14:40.995Z,13.50
2018-09-18T13:15:43.855Z,13.00
2018-09-18T13:16:47.283Z,15.25
2018-09-18T13:17:50.356Z,13.75
2018-09-18T13:18:54.815Z,13.00
2018-09-18T13:19:59.017Z,13.00
2018-09-18T13:21:02.915Z,14.00
2018-09-18T13:22:05.743Z,12.25
2018-09-18T13:23:08.735Z,12.00
2018-09-18T13:24:11.820Z,12.50
2018-09-18T13:25:14.633Z,14.75
2018-09-18T13:26:18.046Z,12.00
2018-09-18T13:27:21.833Z,13.25
2018-09-18T13:28:24.659Z,12.25
2018-09-18T13:29:28.646Z,13.00
2018-09-18T13:30:32.134Z,11.25
2018-09-18T13:31:35.690Z,12.00
2018-09-18T13:32:38.764Z,12.50
2018-09-18T13:33:41.609Z,12.25
2018-09-18T13:34:44.367Z,13.00
2018-09-18T13:35:47.475Z,13.00
2018-09-18T13:36:50.430Z,13.00
2018-09-18T13:37:53.990Z,13.25
2018-09-18T13:38:58.587Z,13.00
2018-09-18T13:40:02.105Z,15.25
2018-09-18T13:41:06.625Z,13.00
2018-09-18T13:42:09.755Z,13.25
2018-09-18T13:43:12.607Z,12.50
2018-09-18T13:44:15.436Z,13.50
2018-09-18T13:45:18.223Z,12.75
2018-09-18T13:46:21.113Z,13.25
2018-09-18T13:47:24.332Z,12.75
2018-09-18T13:48:27.637Z,13.00
2018-09-18T13:49:30.766Z,12.50
2018-09-18T13:50:35.468Z,12.00
2018-09-18T13:51:38.821Z,12.50
2018-09-18T13:52:41.780Z,12.50
2018-09-18T13:53:45.145Z,13.50
2018-09-18T13:54:49.424Z,14.00
2018-09-18T13:55:53.708Z,13.50
2018-09-18T13:56:57.488Z,11.75
2018-09-18T13:58:00.850Z,14.00
2018-09-18T13:59:03.613Z,12.00
2018-09-18T14:00:06.983Z,12.00